LFRM/LME METAR and TAF weather

Enter ICAO airport designator
Station Type Date Time Source
LFRM METAR 2022/08/12 14:00 UTC NOAA

LFRM 121400Z AUTO 05011KT 350V100 CAVOK 34/06 Q1012 NOSIG


Station Type Date Time Source
LFRM Decoded METAR 2022/08/12 14:00 UTC NOAA

Le Mans, France (LFRM) 47-56N 000-12E 52M
Aug 12, 2022 - 10:00 AM EDT / 2022.08.12 1400 UTC
Wind: from the NE (050 degrees) at 13 MPH (11 KT) (direction variable):0
Visibility: greater than 7 mile(s):0
Temperature: 93 F (34 C)
Dew Point: 42 F (6 C)
Relative Humidity: 17%
Pressure (altimeter): 29.88 in. Hg (1012 hPa)
ob: LFRM 121400Z AUTO 05011KT 350V100 CAVOK 34/06 Q1012 NOSIG
cycle: 14

Station Type Date Time Source
LFRM TAF 2022/08/12 12:47 UTC NOAA

TAF LFRM 121100Z 1212/1312 VRB03KT CAVOK
BECMG 1309/1310 08008KT

Example: see airport list